Millboro Springs, Virginia
Current Conditions -  °F | °C
As of 8:55 PM on Monday 24 Nov 2014 (Local Time) from KHSP Reporting Station
Clear Clear  
Wind Chill: 55°   Ceiling: Unl
Heat Index: 55°   Visibility: 10mi
Dew Point: 35°   Wind: 23mph
Humidity: 47%   Direction: 250°WSW
Pressure: 29.82"   Gusts: 28mph
Location:  38.028°N, 79.6492°W
Report Text: KHSP 250155Z AUTO 25020G24KT 10SM CLR 13/02 A2982 RMK AO2 T01280016
Loading
Personal Weather Stations






























Interactive Weather Map New forecast layout! Learn more

10-Day Weather Forecast

Advertisements
Track Severe Weather on mobile